sensor_id;sensor_type;location;lat;lon;timestamp;P1;durP1;ratioP1;P2;durP2;ratioP2
3503;SDS011;1766;53.490;10.174;2023-02-12T00:00:35;14.43;;;6.20;;
3503;SDS011;1766;53.490;10.174;2023-02-12T00:02:37;5.20;;;3.47;;
3503;SDS011;1766;53.490;10.174;2023-02-12T00:04:38;9.37;;;4.97;;
3503;SDS011;1766;53.490;10.174;2023-02-12T00:06:40;8.70;;;4.10;;
3503;SDS011;1766;53.490;10.174;2023-02-12T00:08:42;8.83;;;4.73;;
3503;SDS011;1766;53.490;10.174;2023-02-12T00:10:44;5.27;;;3.40;;
3503;SDS011;1766;53.490;10.174;2023-02-12T00:12:52;5.93;;;3.60;;
3503;SDS011;1766;53.490;10.174;2023-02-12T00:14:54;5.47;;;3.27;;
3503;SDS011;1766;53.490;10.174;2023-02-12T00:16:57;4.83;;;3.53;;
3503;SDS011;1766;53.490;10.174;2023-02-12T00:18:59;10.10;;;4.53;;
3503;SDS011;1766;53.490;10.174;2023-02-12T00:21:01;7.13;;;4.23;;
3503;SDS011;1766;53.490;10.174;2023-02-12T00:23:03;5.20;;;2.50;;
3503;SDS011;1766;53.490;10.174;2023-02-12T00:25:06;9.37;;;3.13;;
3503;SDS011;1766;53.490;10.174;2023-02-12T00:27:08;4.07;;;2.20;;
3503;SDS011;1766;53.490;10.174;2023-02-12T00:29:10;4.47;;;2.50;;
3503;SDS011;1766;53.490;10.174;2023-02-12T00:31:13;3.43;;;2.77;;
3503;SDS011;1766;53.490;10.174;2023-02-12T00:33:17;4.50;;;1.80;;
3503;SDS011;1766;53.490;10.174;2023-02-12T00:35:19;2.40;;;1.93;;
3503;SDS011;1766;53.490;10.174;2023-02-12T00:37:21;2.53;;;1.90;;
3503;SDS011;1766;53.490;10.174;2023-02-12T00:39:23;3.60;;;1.87;;
3503;SDS011;1766;53.490;10.174;2023-02-12T00:41:25;2.53;;;1.90;;
3503;SDS011;1766;53.490;10.174;2023-02-12T00:43:27;2.30;;;2.00;;
3503;SDS011;1766;53.490;10.174;2023-02-12T00:45:29;5.30;;;2.63;;
3503;SDS011;1766;53.490;10.174;2023-02-12T00:47:30;3.40;;;2.10;;
3503;SDS011;1766;53.490;10.174;2023-02-12T00:49:33;2.40;;;2.20;;
3503;SDS011;1766;53.490;10.174;2023-02-12T00:51:35;5.70;;;2.00;;
3503;SDS011;1766;53.490;10.174;2023-02-12T00:53:37;2.60;;;1.90;;
3503;SDS011;1766;53.490;10.174;2023-02-12T00:55:39;3.97;;;2.13;;
3503;SDS011;1766;53.490;10.174;2023-02-12T00:57:45;3.93;;;2.70;;
3503;SDS011;1766;53.490;10.174;2023-02-12T00:59:47;3.83;;;2.63;;
3503;SDS011;1766;53.490;10.174;2023-02-12T01:01:49;4.13;;;2.40;;
3503;SDS011;1766;53.490;10.174;2023-02-12T01:03:52;5.17;;;3.07;;
3503;SDS011;1766;53.490;10.174;2023-02-12T01:05:55;7.13;;;3.30;;
3503;SDS011;1766;53.490;10.174;2023-02-12T01:07:57;3.73;;;3.00;;
3503;SDS011;1766;53.490;10.174;2023-02-12T01:09:59;6.30;;;3.13;;
3503;SDS011;1766;53.490;10.174;2023-02-12T01:12:01;4.77;;;2.90;;
3503;SDS011;1766;53.490;10.174;2023-02-12T01:14:03;3.57;;;2.93;;
3503;SDS011;1766;53.490;10.174;2023-02-12T01:16:06;4.77;;;2.80;;
3503;SDS011;1766;53.490;10.174;2023-02-12T01:18:12;4.87;;;3.17;;
3503;SDS011;1766;53.490;10.174;2023-02-12T01:20:16;4.70;;;3.47;;
3503;SDS011;1766;53.490;10.174;2023-02-12T01:22:19;4.63;;;3.43;;
3503;SDS011;1766;53.490;10.174;2023-02-12T01:24:21;7.27;;;4.00;;
3503;SDS011;1766;53.490;10.174;2023-02-12T01:26:23;5.40;;;3.03;;
3503;SDS011;1766;53.490;10.174;2023-02-12T01:28:26;7.50;;;3.30;;
3503;SDS011;1766;53.490;10.174;2023-02-12T01:30:27;6.00;;;2.93;;
3503;SDS011;1766;53.490;10.174;2023-02-12T01:32:29;4.87;;;2.17;;
3503;SDS011;1766;53.490;10.174;2023-02-12T01:34:31;4.10;;;2.83;;
3503;SDS011;1766;53.490;10.174;2023-02-12T01:36:33;5.67;;;3.20;;
3503;SDS011;1766;53.490;10.174;2023-02-12T01:38:36;3.80;;;3.33;;
3503;SDS011;1766;53.490;10.174;2023-02-12T01:40:38;3.77;;;3.30;;
3503;SDS011;1766;53.490;10.174;2023-02-12T01:42:49;3.40;;;2.73;;
3503;SDS011;1766;53.490;10.174;2023-02-12T01:47:40;3.93;;;2.90;;
3503;SDS011;1766;53.490;10.174;2023-02-12T01:49:45;4.30;;;3.03;;
3503;SDS011;1766;53.490;10.174;2023-02-12T01:51:49;3.73;;;2.97;;
3503;SDS011;1766;53.490;10.174;2023-02-12T01:53:55;6.37;;;3.43;;
3503;SDS011;1766;53.490;10.174;2023-02-12T01:56:03;4.57;;;3.37;;
3503;SDS011;1766;53.490;10.174;2023-02-12T01:58:06;5.03;;;3.80;;
3503;SDS011;1766;53.490;10.174;2023-02-12T02:00:16;4.57;;;3.33;;
3503;SDS011;1766;53.490;10.174;2023-02-12T02:02:21;4.10;;;3.37;;
3503;SDS011;1766;53.490;10.174;2023-02-12T02:04:23;6.47;;;3.80;;
3503;SDS011;1766;53.490;10.174;2023-02-12T02:06:30;7.20;;;3.27;;
3503;SDS011;1766;53.490;10.174;2023-02-12T02:08:35;6.57;;;4.00;;
3503;SDS011;1766;53.490;10.174;2023-02-12T02:10:39;6.43;;;3.60;;
3503;SDS011;1766;53.490;10.174;2023-02-12T02:12:44;5.63;;;3.20;;
3503;SDS011;1766;53.490;10.174;2023-02-12T02:15:00;7.80;;;4.07;;
3503;SDS011;1766;53.490;10.174;2023-02-12T02:17:06;7.70;;;4.50;;
3503;SDS011;1766;53.490;10.174;2023-02-12T02:19:29;8.93;;;4.50;;
3503;SDS011;1766;53.490;10.174;2023-02-12T02:21:51;9.77;;;4.77;;
3503;SDS011;1766;53.490;10.174;2023-02-12T02:24:15;6.53;;;2.93;;
3503;SDS011;1766;53.490;10.174;2023-02-12T02:26:49;8.77;;;5.17;;
3503;SDS011;1766;53.490;10.174;2023-02-12T02:29:12;9.93;;;4.93;;
3503;SDS011;1766;53.490;10.174;2023-02-12T02:31:35;11.23;;;5.23;;
3503;SDS011;1766;53.490;10.174;2023-02-12T02:33:43;11.53;;;5.07;;
3503;SDS011;1766;53.490;10.174;2023-02-12T02:35:54;14.03;;;5.87;;
3503;SDS011;1766;53.490;10.174;2023-02-12T02:38:13;8.90;;;5.27;;
3503;SDS011;1766;53.490;10.174;2023-02-12T02:40:24;8.30;;;4.87;;
3503;SDS011;1766;53.490;10.174;2023-02-12T02:42:34;12.53;;;6.00;;
3503;SDS011;1766;53.490;10.174;2023-02-12T02:44:41;9.20;;;4.97;;
3503;SDS011;1766;53.490;10.174;2023-02-12T02:46:50;11.03;;;6.00;;
3503;SDS011;1766;53.490;10.174;2023-02-12T02:48:56;12.13;;;5.40;;
3503;SDS011;1766;53.490;10.174;2023-02-12T02:51:03;9.27;;;5.20;;
3503;SDS011;1766;53.490;10.174;2023-02-12T02:53:10;9.70;;;5.33;;
3503;SDS011;1766;53.490;10.174;2023-02-12T02:55:16;10.20;;;5.57;;
3503;SDS011;1766;53.490;10.174;2023-02-12T02:57:25;11.73;;;6.03;;
3503;SDS011;1766;53.490;10.174;2023-02-12T02:59:33;10.80;;;5.77;;
3503;SDS011;1766;53.490;10.174;2023-02-12T03:01:39;13.00;;;5.63;;
3503;SDS011;1766;53.490;10.174;2023-02-12T03:03:47;9.07;;;4.70;;
3503;SDS011;1766;53.490;10.174;2023-02-12T03:06:04;8.60;;;4.00;;
3503;SDS011;1766;53.490;10.174;2023-02-12T03:08:18;8.47;;;4.33;;
3503;SDS011;1766;53.490;10.174;2023-02-12T03:10:31;10.20;;;5.30;;
3503;SDS011;1766;53.490;10.174;2023-02-12T03:12:47;7.83;;;4.27;;
3503;SDS011;1766;53.490;10.174;2023-02-12T03:15:12;10.37;;;4.90;;
3503;SDS011;1766;53.490;10.174;2023-02-12T03:17:31;9.63;;;4.57;;
3503;SDS011;1766;53.490;10.174;2023-02-12T03:20:03;7.63;;;4.43;;
3503;SDS011;1766;53.490;10.174;2023-02-12T03:22:37;9.83;;;5.47;;
3503;SDS011;1766;53.490;10.174;2023-02-12T03:24:55;11.80;;;6.73;;
3503;SDS011;1766;53.490;10.174;2023-02-12T03:27:06;15.23;;;7.90;;
3503;SDS011;1766;53.490;10.174;2023-02-12T03:29:30;17.23;;;7.90;;
3503;SDS011;1766;53.490;10.174;2023-02-12T03:31:59;17.97;;;8.47;;
3503;SDS011;1766;53.490;10.174;2023-02-12T03:34:14;15.97;;;8.60;;
3503;SDS011;1766;53.490;10.174;2023-02-12T03:36:44;14.90;;;8.70;;
3503;SDS011;1766;53.490;10.174;2023-02-12T03:38:54;16.83;;;8.50;;
3503;SDS011;1766;53.490;10.174;2023-02-12T03:41:13;14.73;;;8.33;;
3503;SDS011;1766;53.490;10.174;2023-02-12T03:43:26;17.00;;;7.47;;
3503;SDS011;1766;53.490;10.174;2023-02-12T03:45:53;16.37;;;8.00;;
3503;SDS011;1766;53.490;10.174;2023-02-12T03:48:17;16.20;;;8.27;;
3503;SDS011;1766;53.490;10.174;2023-02-12T03:50:41;15.37;;;8.20;;
3503;SDS011;1766;53.490;10.174;2023-02-12T03:52:49;17.87;;;8.67;;
3503;SDS011;1766;53.490;10.174;2023-02-12T03:54:52;20.33;;;9.73;;
3503;SDS011;1766;53.490;10.174;2023-02-12T03:56:58;20.03;;;9.07;;
3503;SDS011;1766;53.490;10.174;2023-02-12T03:59:15;20.20;;;10.47;;
3503;SDS011;1766;53.490;10.174;2023-02-12T04:01:20;20.57;;;10.00;;
3503;SDS011;1766;53.490;10.174;2023-02-12T04:03:23;16.57;;;8.53;;
3503;SDS011;1766;53.490;10.174;2023-02-12T04:05:26;15.97;;;7.40;;
3503;SDS011;1766;53.490;10.174;2023-02-12T04:07:28;14.83;;;6.90;;
3503;SDS011;1766;53.490;10.174;2023-02-12T04:09:34;15.03;;;7.87;;
3503;SDS011;1766;53.490;10.174;2023-02-12T04:11:43;16.90;;;7.00;;
3503;SDS011;1766;53.490;10.174;2023-02-12T04:14:14;12.47;;;6.30;;
3503;SDS011;1766;53.490;10.174;2023-02-12T04:17:02;16.43;;;7.30;;
3503;SDS011;1766;53.490;10.174;2023-02-12T04:19:19;11.47;;;6.33;;
3503;SDS011;1766;53.490;10.174;2023-02-12T04:21:36;11.43;;;5.93;;
3503;SDS011;1766;53.490;10.174;2023-02-12T04:23:49;11.77;;;6.23;;
3503;SDS011;1766;53.490;10.174;2023-02-12T04:26:29;9.80;;;5.13;;
3503;SDS011;1766;53.490;10.174;2023-02-12T04:29:01;12.53;;;5.50;;
3503;SDS011;1766;53.490;10.174;2023-02-12T04:31:37;10.93;;;5.20;;
3503;SDS011;1766;53.490;10.174;2023-02-12T04:33:54;9.20;;;4.77;;
3503;SDS011;1766;53.490;10.174;2023-02-12T04:39:00;11.33;;;5.17;;
3503;SDS011;1766;53.490;10.174;2023-02-12T04:41:10;9.27;;;4.93;;
3503;SDS011;1766;53.490;10.174;2023-02-12T04:43:28;8.53;;;4.93;;
3503;SDS011;1766;53.490;10.174;2023-02-12T04:45:40;11.23;;;4.80;;
3503;SDS011;1766;53.490;10.174;2023-02-12T04:47:51;10.80;;;5.03;;
3503;SDS011;1766;53.490;10.174;2023-02-12T04:49:59;10.53;;;4.93;;
3503;SDS011;1766;53.490;10.174;2023-02-12T04:52:12;7.97;;;4.53;;
3503;SDS011;1766;53.490;10.174;2023-02-12T04:54:17;10.50;;;5.00;;
3503;SDS011;1766;53.490;10.174;2023-02-12T04:56:31;11.27;;;5.20;;
3503;SDS011;1766;53.490;10.174;2023-02-12T04:58:35;9.93;;;5.00;;
3503;SDS011;1766;53.490;10.174;2023-02-12T05:00:37;9.70;;;5.77;;
3503;SDS011;1766;53.490;10.174;2023-02-12T05:02:39;13.77;;;5.70;;
3503;SDS011;1766;53.490;10.174;2023-02-12T05:04:41;10.40;;;5.10;;
3503;SDS011;1766;53.490;10.174;2023-02-12T05:06:43;11.97;;;5.67;;
3503;SDS011;1766;53.490;10.174;2023-02-12T05:08:46;12.40;;;6.23;;
3503;SDS011;1766;53.490;10.174;2023-02-12T05:10:48;13.30;;;6.37;;
3503;SDS011;1766;53.490;10.174;2023-02-12T05:12:50;17.87;;;7.47;;
3503;SDS011;1766;53.490;10.174;2023-02-12T05:14:54;21.77;;;8.23;;
3503;SDS011;1766;53.490;10.174;2023-02-12T05:16:55;23.07;;;9.20;;
3503;SDS011;1766;53.490;10.174;2023-02-12T05:18:57;22.63;;;9.50;;
3503;SDS011;1766;53.490;10.174;2023-02-12T05:21:00;28.07;;;10.50;;
3503;SDS011;1766;53.490;10.174;2023-02-12T05:23:04;34.80;;;11.77;;
3503;SDS011;1766;53.490;10.174;2023-02-12T05:25:06;25.67;;;10.87;;
3503;SDS011;1766;53.490;10.174;2023-02-12T05:27:19;40.23;;;11.43;;
3503;SDS011;1766;53.490;10.174;2023-02-12T05:29:21;32.63;;;11.60;;
3503;SDS011;1766;53.490;10.174;2023-02-12T05:31:25;31.97;;;12.00;;
3503;SDS011;1766;53.490;10.174;2023-02-12T05:33:27;41.37;;;12.93;;
3503;SDS011;1766;53.490;10.174;2023-02-12T05:35:31;43.63;;;12.03;;
3503;SDS011;1766;53.490;10.174;2023-02-12T05:37:35;70.73;;;11.70;;
3503;SDS011;1766;53.490;10.174;2023-02-12T05:39:36;60.50;;;11.30;;
3503;SDS011;1766;53.490;10.174;2023-02-12T05:41:38;64.10;;;12.07;;
3503;SDS011;1766;53.490;10.174;2023-02-12T05:43:40;53.07;;;12.17;;
3503;SDS011;1766;53.490;10.174;2023-02-12T05:45:43;54.57;;;12.20;;
3503;SDS011;1766;53.490;10.174;2023-02-12T05:47:46;125.63;;;12.13;;
3503;SDS011;1766;53.490;10.174;2023-02-12T05:49:47;122.37;;;13.43;;
3503;SDS011;1766;53.490;10.174;2023-02-12T05:51:49;80.43;;;11.37;;
3503;SDS011;1766;53.490;10.174;2023-02-12T05:53:52;69.13;;;11.23;;
3503;SDS011;1766;53.490;10.174;2023-02-12T05:56:07;119.83;;;12.13;;
3503;SDS011;1766;53.490;10.174;2023-02-12T05:58:12;59.73;;;12.13;;
3503;SDS011;1766;53.490;10.174;2023-02-12T06:00:14;72.27;;;13.00;;
3503;SDS011;1766;53.490;10.174;2023-02-12T06:02:17;52.30;;;11.63;;
3503;SDS011;1766;53.490;10.174;2023-02-12T06:04:20;77.50;;;13.03;;
3503;SDS011;1766;53.490;10.174;2023-02-12T06:06:24;69.90;;;11.50;;
3503;SDS011;1766;53.490;10.174;2023-02-12T06:08:26;65.57;;;11.97;;
3503;SDS011;1766;53.490;10.174;2023-02-12T06:10:28;51.03;;;11.30;;
3503;SDS011;1766;53.490;10.174;2023-02-12T06:12:40;108.77;;;13.00;;
3503;SDS011;1766;53.490;10.174;2023-02-12T06:14:42;66.57;;;11.63;;
3503;SDS011;1766;53.490;10.174;2023-02-12T06:16:44;48.97;;;10.50;;
3503;SDS011;1766;53.490;10.174;2023-02-12T06:18:47;97.97;;;10.63;;
3503;SDS011;1766;53.490;10.174;2023-02-12T06:20:52;58.67;;;10.53;;
3503;SDS011;1766;53.490;10.174;2023-02-12T06:22:54;45.60;;;9.33;;
3503;SDS011;1766;53.490;10.174;2023-02-12T06:24:56;76.77;;;10.93;;
3503;SDS011;1766;53.490;10.174;2023-02-12T06:26:58;57.90;;;10.87;;
3503;SDS011;1766;53.490;10.174;2023-02-12T06:29:00;52.87;;;10.23;;
3503;SDS011;1766;53.490;10.174;2023-02-12T06:31:02;46.03;;;9.90;;
3503;SDS011;1766;53.490;10.174;2023-02-12T06:33:04;45.13;;;9.53;;
3503;SDS011;1766;53.490;10.174;2023-02-12T06:35:06;53.83;;;8.50;;
3503;SDS011;1766;53.490;10.174;2023-02-12T06:37:09;41.07;;;8.97;;
3503;SDS011;1766;53.490;10.174;2023-02-12T06:39:12;74.63;;;10.13;;
3503;SDS011;1766;53.490;10.174;2023-02-12T06:41:16;32.40;;;8.70;;
3503;SDS011;1766;53.490;10.174;2023-02-12T06:43:18;50.43;;;9.13;;
3503;SDS011;1766;53.490;10.174;2023-02-12T06:45:20;43.10;;;8.47;;
3503;SDS011;1766;53.490;10.174;2023-02-12T06:47:22;57.23;;;8.53;;
3503;SDS011;1766;53.490;10.174;2023-02-12T06:49:24;43.10;;;8.80;;
3503;SDS011;1766;53.490;10.174;2023-02-12T06:51:27;31.10;;;7.93;;
3503;SDS011;1766;53.490;10.174;2023-02-12T06:53:32;47.13;;;8.63;;
3503;SDS011;1766;53.490;10.174;2023-02-12T06:55:35;34.80;;;8.20;;
3503;SDS011;1766;53.490;10.174;2023-02-12T06:57:37;52.73;;;8.83;;
3503;SDS011;1766;53.490;10.174;2023-02-12T06:59:39;38.37;;;9.40;;
3503;SDS011;1766;53.490;10.174;2023-02-12T07:01:41;27.50;;;8.07;;
3503;SDS011;1766;53.490;10.174;2023-02-12T07:03:46;41.90;;;9.50;;
3503;SDS011;1766;53.490;10.174;2023-02-12T07:05:50;36.93;;;8.67;;
3503;SDS011;1766;53.490;10.174;2023-02-12T07:07:51;37.03;;;9.10;;
3503;SDS011;1766;53.490;10.174;2023-02-12T07:09:55;59.63;;;8.93;;
3503;SDS011;1766;53.490;10.174;2023-02-12T07:11:56;66.87;;;9.00;;
3503;SDS011;1766;53.490;10.174;2023-02-12T07:13:58;43.80;;;8.57;;
3503;SDS011;1766;53.490;10.174;2023-02-12T07:16:02;41.67;;;8.00;;
3503;SDS011;1766;53.490;10.174;2023-02-12T07:18:05;54.50;;;8.33;;
3503;SDS011;1766;53.490;10.174;2023-02-12T07:20:07;44.07;;;7.90;;
3503;SDS011;1766;53.490;10.174;2023-02-12T07:22:10;58.10;;;8.33;;
3503;SDS011;1766;53.490;10.174;2023-02-12T07:24:12;42.87;;;8.93;;
3503;SDS011;1766;53.490;10.174;2023-02-12T07:26:18;48.67;;;7.70;;
3503;SDS011;1766;53.490;10.174;2023-02-12T07:28:22;67.23;;;7.93;;
3503;SDS011;1766;53.490;10.174;2023-02-12T07:30:24;24.27;;;6.77;;
3503;SDS011;1766;53.490;10.174;2023-02-12T07:32:26;52.60;;;8.90;;
3503;SDS011;1766;53.490;10.174;2023-02-12T07:34:27;49.30;;;8.77;;
3503;SDS011;1766;53.490;10.174;2023-02-12T07:36:30;34.47;;;7.80;;
3503;SDS011;1766;53.490;10.174;2023-02-12T07:38:33;50.57;;;7.40;;
3503;SDS011;1766;53.490;10.174;2023-02-12T07:40:35;33.17;;;7.57;;
3503;SDS011;1766;53.490;10.174;2023-02-12T07:42:38;48.70;;;7.80;;
3503;SDS011;1766;53.490;10.174;2023-02-12T07:44:40;37.43;;;7.27;;
3503;SDS011;1766;53.490;10.174;2023-02-12T07:46:42;44.70;;;6.80;;
3503;SDS011;1766;53.490;10.174;2023-02-12T07:48:46;35.13;;;8.63;;
3503;SDS011;1766;53.490;10.174;2023-02-12T07:50:48;47.30;;;7.67;;
3503;SDS011;1766;53.490;10.174;2023-02-12T07:52:51;36.87;;;6.40;;
3503;SDS011;1766;53.490;10.174;2023-02-12T07:54:53;29.00;;;7.80;;
3503;SDS011;1766;53.490;10.174;2023-02-12T07:56:54;38.10;;;7.33;;
3503;SDS011;1766;53.490;10.174;2023-02-12T07:58:59;47.40;;;8.43;;
3503;SDS011;1766;53.490;10.174;2023-02-12T08:01:10;46.07;;;7.47;;
3503;SDS011;1766;53.490;10.174;2023-02-12T08:03:16;34.47;;;7.50;;
3503;SDS011;1766;53.490;10.174;2023-02-12T08:05:18;27.67;;;7.40;;
3503;SDS011;1766;53.490;10.174;2023-02-12T08:07:20;30.80;;;7.23;;
3503;SDS011;1766;53.490;10.174;2023-02-12T08:09:23;28.70;;;8.03;;
3503;SDS011;1766;53.490;10.174;2023-02-12T08:11:27;52.37;;;7.80;;
3503;SDS011;1766;53.490;10.174;2023-02-12T08:13:30;49.27;;;8.03;;
3503;SDS011;1766;53.490;10.174;2023-02-12T08:15:34;36.13;;;8.07;;
3503;SDS011;1766;53.490;10.174;2023-02-12T08:17:35;33.53;;;8.47;;
3503;SDS011;1766;53.490;10.174;2023-02-12T08:19:37;43.63;;;8.23;;
3503;SDS011;1766;53.490;10.174;2023-02-12T08:21:39;38.93;;;9.50;;
3503;SDS011;1766;53.490;10.174;2023-02-12T08:23:41;50.63;;;8.90;;
3503;SDS011;1766;53.490;10.174;2023-02-12T08:25:43;40.83;;;9.37;;
3503;SDS011;1766;53.490;10.174;2023-02-12T08:27:45;31.57;;;9.70;;
3503;SDS011;1766;53.490;10.174;2023-02-12T08:29:47;32.00;;;9.43;;
3503;SDS011;1766;53.490;10.174;2023-02-12T08:31:53;39.70;;;11.30;;
3503;SDS011;1766;53.490;10.174;2023-02-12T08:33:57;37.63;;;11.23;;
3503;SDS011;1766;53.490;10.174;2023-02-12T08:36:01;37.43;;;10.03;;
3503;SDS011;1766;53.490;10.174;2023-02-12T08:38:05;39.43;;;11.67;;
3503;SDS011;1766;53.490;10.174;2023-02-12T08:40:07;49.70;;;12.17;;
3503;SDS011;1766;53.490;10.174;2023-02-12T08:42:26;36.63;;;11.33;;
3503;SDS011;1766;53.490;10.174;2023-02-12T08:44:28;40.83;;;11.77;;
3503;SDS011;1766;53.490;10.174;2023-02-12T08:46:31;45.37;;;11.37;;
3503;SDS011;1766;53.490;10.174;2023-02-12T08:48:36;35.00;;;12.40;;
3503;SDS011;1766;53.490;10.174;2023-02-12T08:50:39;35.87;;;12.97;;
3503;SDS011;1766;53.490;10.174;2023-02-12T08:52:41;38.00;;;12.80;;
3503;SDS011;1766;53.490;10.174;2023-02-12T08:54:42;47.83;;;14.13;;
3503;SDS011;1766;53.490;10.174;2023-02-12T08:56:44;42.00;;;14.90;;
3503;SDS011;1766;53.490;10.174;2023-02-12T08:58:46;35.00;;;13.13;;
3503;SDS011;1766;53.490;10.174;2023-02-12T09:00:48;35.57;;;15.00;;
3503;SDS011;1766;53.490;10.174;2023-02-12T09:02:50;41.40;;;14.77;;
3503;SDS011;1766;53.490;10.174;2023-02-12T09:04:54;38.60;;;14.97;;
3503;SDS011;1766;53.490;10.174;2023-02-12T09:06:55;40.33;;;14.07;;
3503;SDS011;1766;53.490;10.174;2023-02-12T09:08:58;40.27;;;14.20;;
3503;SDS011;1766;53.490;10.174;2023-02-12T09:11:02;38.90;;;15.47;;
3503;SDS011;1766;53.490;10.174;2023-02-12T09:13:06;35.20;;;14.53;;
3503;SDS011;1766;53.490;10.174;2023-02-12T09:15:09;35.00;;;15.37;;
3503;SDS011;1766;53.490;10.174;2023-02-12T09:17:10;36.27;;;14.37;;
3503;SDS011;1766;53.490;10.174;2023-02-12T09:19:13;35.03;;;15.83;;
3503;SDS011;1766;53.490;10.174;2023-02-12T09:21:17;34.80;;;14.50;;
3503;SDS011;1766;53.490;10.174;2023-02-12T09:23:19;35.40;;;14.17;;
3503;SDS011;1766;53.490;10.174;2023-02-12T09:25:21;33.83;;;13.07;;
3503;SDS011;1766;53.490;10.174;2023-02-12T09:27:29;30.83;;;14.73;;
3503;SDS011;1766;53.490;10.174;2023-02-12T09:29:31;30.70;;;13.90;;
3503;SDS011;1766;53.490;10.174;2023-02-12T09:31:33;32.90;;;14.77;;
3503;SDS011;1766;53.490;10.174;2023-02-12T09:33:35;35.03;;;13.20;;
3503;SDS011;1766;53.490;10.174;2023-02-12T09:35:38;29.07;;;14.03;;
3503;SDS011;1766;53.490;10.174;2023-02-12T09:37:42;29.93;;;13.23;;
3503;SDS011;1766;53.490;10.174;2023-02-12T09:39:44;28.03;;;13.63;;
3503;SDS011;1766;53.490;10.174;2023-02-12T09:41:51;28.77;;;13.63;;
3503;SDS011;1766;53.490;10.174;2023-02-12T09:44:16;33.20;;;16.17;;
3503;SDS011;1766;53.490;10.174;2023-02-12T09:46:26;26.60;;;13.40;;
3503;SDS011;1766;53.490;10.174;2023-02-12T09:48:34;29.33;;;15.47;;
3503;SDS011;1766;53.490;10.174;2023-02-12T09:50:47;29.37;;;12.83;;
3503;SDS011;1766;53.490;10.174;2023-02-12T09:52:54;24.97;;;13.53;;
3503;SDS011;1766;53.490;10.174;2023-02-12T09:54:58;24.77;;;13.67;;
3503;SDS011;1766;53.490;10.174;2023-02-12T09:57:16;27.30;;;13.60;;
3503;SDS011;1766;53.490;10.174;2023-02-12T09:59:34;24.43;;;11.97;;
3503;SDS011;1766;53.490;10.174;2023-02-12T10:01:41;28.90;;;12.53;;
3503;SDS011;1766;53.490;10.174;2023-02-12T10:03:43;27.33;;;13.77;;
3503;SDS011;1766;53.490;10.174;2023-02-12T10:05:48;21.40;;;11.50;;
3503;SDS011;1766;53.490;10.174;2023-02-12T10:08:02;21.83;;;12.40;;
3503;SDS011;1766;53.490;10.174;2023-02-12T10:10:24;23.00;;;11.37;;
3503;SDS011;1766;53.490;10.174;2023-02-12T10:12:43;21.97;;;11.70;;
3503;SDS011;1766;53.490;10.174;2023-02-12T10:14:55;23.33;;;10.80;;
3503;SDS011;1766;53.490;10.174;2023-02-12T10:17:12;18.30;;;11.13;;
3503;SDS011;1766;53.490;10.174;2023-02-12T10:19:27;19.40;;;10.90;;
3503;SDS011;1766;53.490;10.174;2023-02-12T10:21:48;21.00;;;10.53;;
3503;SDS011;1766;53.490;10.174;2023-02-12T10:24:07;14.97;;;9.53;;
3503;SDS011;1766;53.490;10.174;2023-02-12T10:26:28;15.83;;;9.93;;
3503;SDS011;1766;53.490;10.174;2023-02-12T10:28:34;16.10;;;9.80;;
3503;SDS011;1766;53.490;10.174;2023-02-12T10:30:42;17.03;;;10.20;;
3503;SDS011;1766;53.490;10.174;2023-02-12T10:32:50;20.50;;;8.90;;
3503;SDS011;1766;53.490;10.174;2023-02-12T10:34:59;14.80;;;8.73;;
3503;SDS011;1766;53.490;10.174;2023-02-12T10:37:02;14.03;;;8.10;;
3503;SDS011;1766;53.490;10.174;2023-02-12T10:39:14;14.83;;;8.50;;
3503;SDS011;1766;53.490;10.174;2023-02-12T10:41:21;13.97;;;8.50;;
3503;SDS011;1766;53.490;10.174;2023-02-12T10:43:27;14.27;;;8.23;;
3503;SDS011;1766;53.490;10.174;2023-02-12T10:45:30;21.73;;;11.13;;
3503;SDS011;1766;53.490;10.174;2023-02-12T10:47:33;16.10;;;9.60;;
3503;SDS011;1766;53.490;10.174;2023-02-12T10:49:35;15.60;;;8.67;;
3503;SDS011;1766;53.490;10.174;2023-02-12T10:51:42;18.43;;;10.73;;
3503;SDS011;1766;53.490;10.174;2023-02-12T10:53:57;11.80;;;7.47;;
3503;SDS011;1766;53.490;10.174;2023-02-12T10:56:46;14.10;;;7.70;;
3503;SDS011;1766;53.490;10.174;2023-02-12T10:58:50;12.00;;;6.47;;
3503;SDS011;1766;53.490;10.174;2023-02-12T11:00:56;10.27;;;6.30;;
3503;SDS011;1766;53.490;10.174;2023-02-12T11:03:02;11.60;;;7.03;;
3503;SDS011;1766;53.490;10.174;2023-02-12T11:05:21;9.93;;;6.43;;
3503;SDS011;1766;53.490;10.174;2023-02-12T11:07:26;9.30;;;6.53;;
3503;SDS011;1766;53.490;10.174;2023-02-12T11:09:29;9.57;;;6.20;;
3503;SDS011;1766;53.490;10.174;2023-02-12T11:11:36;8.27;;;5.87;;
3503;SDS011;1766;53.490;10.174;2023-02-12T11:13:41;8.70;;;5.60;;
3503;SDS011;1766;53.490;10.174;2023-02-12T11:15:47;9.17;;;5.47;;
3503;SDS011;1766;53.490;10.174;2023-02-12T11:17:54;8.37;;;4.97;;
3503;SDS011;1766;53.490;10.174;2023-02-12T11:20:01;7.67;;;5.20;;
3503;SDS011;1766;53.490;10.174;2023-02-12T11:22:09;6.30;;;4.87;;
3503;SDS011;1766;53.490;10.174;2023-02-12T11:24:25;5.73;;;4.50;;
3503;SDS011;1766;53.490;10.174;2023-02-12T11:26:31;8.77;;;5.20;;
3503;SDS011;1766;53.490;10.174;2023-02-12T11:28:36;6.53;;;4.80;;
3503;SDS011;1766;53.490;10.174;2023-02-12T11:30:49;11.20;;;6.67;;
3503;SDS011;1766;53.490;10.174;2023-02-12T11:32:57;12.00;;;7.20;;
3503;SDS011;1766;53.490;10.174;2023-02-12T11:35:17;10.37;;;7.00;;
3503;SDS011;1766;53.490;10.174;2023-02-12T11:37:25;12.60;;;7.40;;
3503;SDS011;1766;53.490;10.174;2023-02-12T11:39:29;11.50;;;6.77;;
3503;SDS011;1766;53.490;10.174;2023-02-12T11:41:34;10.43;;;6.83;;
3503;SDS011;1766;53.490;10.174;2023-02-12T11:43:39;11.77;;;7.53;;
3503;SDS011;1766;53.490;10.174;2023-02-12T11:45:41;11.60;;;7.63;;
3503;SDS011;1766;53.490;10.174;2023-02-12T11:47:48;10.23;;;7.10;;
3503;SDS011;1766;53.490;10.174;2023-02-12T11:49:52;10.03;;;6.60;;
3503;SDS011;1766;53.490;10.174;2023-02-12T11:51:58;11.03;;;6.37;;
3503;SDS011;1766;53.490;10.174;2023-02-12T11:54:03;11.60;;;6.73;;
3503;SDS011;1766;53.490;10.174;2023-02-12T11:56:07;7.87;;;5.70;;
3503;SDS011;1766;53.490;10.174;2023-02-12T11:58:13;10.53;;;5.80;;
3503;SDS011;1766;53.490;10.174;2023-02-12T12:00:18;7.27;;;5.57;;
3503;SDS011;1766;53.490;10.174;2023-02-12T12:02:27;11.20;;;6.07;;
3503;SDS011;1766;53.490;10.174;2023-02-12T12:04:39;8.63;;;6.00;;
3503;SDS011;1766;53.490;10.174;2023-02-12T12:06:43;9.27;;;5.87;;
3503;SDS011;1766;53.490;10.174;2023-02-12T12:08:50;11.57;;;6.27;;
3503;SDS011;1766;53.490;10.174;2023-02-12T12:10:59;8.77;;;5.43;;
3503;SDS011;1766;53.490;10.174;2023-02-12T12:13:10;10.83;;;6.57;;
3503;SDS011;1766;53.490;10.174;2023-02-12T12:15:18;9.47;;;6.20;;
3503;SDS011;1766;53.490;10.174;2023-02-12T12:17:40;11.37;;;6.20;;
3503;SDS011;1766;53.490;10.174;2023-02-12T12:20:04;9.50;;;6.33;;
3503;SDS011;1766;53.490;10.174;2023-02-12T12:22:15;13.40;;;6.33;;
3503;SDS011;1766;53.490;10.174;2023-02-12T12:24:28;10.17;;;6.40;;
3503;SDS011;1766;53.490;10.174;2023-02-12T12:26:39;10.30;;;5.97;;
3503;SDS011;1766;53.490;10.174;2023-02-12T12:28:50;11.30;;;6.23;;
3503;SDS011;1766;53.490;10.174;2023-02-12T12:31:01;10.27;;;6.20;;
3503;SDS011;1766;53.490;10.174;2023-02-12T12:33:10;9.13;;;6.07;;
3503;SDS011;1766;53.490;10.174;2023-02-12T12:35:22;10.40;;;5.77;;
3503;SDS011;1766;53.490;10.174;2023-02-12T12:37:33;10.90;;;6.10;;
3503;SDS011;1766;53.490;10.174;2023-02-12T12:39:42;11.43;;;6.00;;
3503;SDS011;1766;53.490;10.174;2023-02-12T12:42:04;9.03;;;6.47;;
3503;SDS011;1766;53.490;10.174;2023-02-12T12:44:35;7.57;;;5.23;;
3503;SDS011;1766;53.490;10.174;2023-02-12T12:46:59;9.10;;;6.10;;
3503;SDS011;1766;53.490;10.174;2023-02-12T12:49:17;8.60;;;5.60;;
3503;SDS011;1766;53.490;10.174;2023-02-12T12:51:36;8.30;;;5.80;;
3503;SDS011;1766;53.490;10.174;2023-02-12T12:54:02;9.87;;;6.07;;